sensor_id;sensor_type;location;lat;lon;timestamp;pressure;altitude;pressure_sealevel;temperature;humidity
80333;BME280;69652;51.864;-2.246;2023-06-10T00:01:49;101314.19;;;16.73;65.32
80333;BME280;69652;51.864;-2.246;2023-06-10T00:04:15;101317.41;;;16.67;65.45
80333;BME280;69652;51.864;-2.246;2023-06-10T00:06:45;101312.94;;;16.62;65.57
80333;BME280;69652;51.864;-2.246;2023-06-10T00:09:14;101316.63;;;16.57;65.48
80333;BME280;69652;51.864;-2.246;2023-06-10T00:11:41;101314.69;;;16.58;65.39
80333;BME280;69652;51.864;-2.246;2023-06-10T00:14:07;101318.41;;;16.53;66.24
80333;BME280;69652;51.864;-2.246;2023-06-10T00:16:33;101320.34;;;16.53;65.74
80333;BME280;69652;51.864;-2.246;2023-06-10T00:19:03;101317.34;;;16.37;66.96
80333;BME280;69652;51.864;-2.246;2023-06-10T00:21:30;101316.72;;;16.32;67.77
80333;BME280;69652;51.864;-2.246;2023-06-10T00:24:05;101313.50;;;16.30;66.71
80333;BME280;69652;51.864;-2.246;2023-06-10T00:26:32;101314.81;;;16.23;67.27
80333;BME280;69652;51.864;-2.246;2023-06-10T00:28:58;101321.38;;;16.31;67.24
80333;BME280;69652;51.864;-2.246;2023-06-10T00:31:23;101325.56;;;16.37;67.06
80333;BME280;69652;51.864;-2.246;2023-06-10T00:33:49;101317.56;;;16.23;66.75
80333;BME280;69652;51.864;-2.246;2023-06-10T00:36:14;101313.38;;;16.26;67.36
80333;BME280;69652;51.864;-2.246;2023-06-10T00:38:40;101315.19;;;16.05;67.24
80333;BME280;69652;51.864;-2.246;2023-06-10T00:41:08;101317.09;;;16.13;66.86
80333;BME280;69652;51.864;-2.246;2023-06-10T00:43:34;101316.47;;;16.07;67.15
80333;BME280;69652;51.864;-2.246;2023-06-10T00:45:59;101317.28;;;15.99;66.73
80333;BME280;69652;51.864;-2.246;2023-06-10T00:48:25;101318.56;;;16.02;67.31
80333;BME280;69652;51.864;-2.246;2023-06-10T00:50:52;101313.25;;;15.97;68.11
80333;BME280;69652;51.864;-2.246;2023-06-10T00:53:17;101318.91;;;15.92;68.06
80333;BME280;69652;51.864;-2.246;2023-06-10T00:55:43;101312.31;;;15.84;68.66
80333;BME280;69652;51.864;-2.246;2023-06-10T00:58:09;101310.72;;;15.92;68.16
80333;BME280;69652;51.864;-2.246;2023-06-10T01:00:35;101308.28;;;15.90;68.37
80333;BME280;69652;51.864;-2.246;2023-06-10T01:03:01;101307.66;;;15.76;68.16
80333;BME280;69652;51.864;-2.246;2023-06-10T01:05:26;101319.44;;;15.68;69.09
80333;BME280;69652;51.864;-2.246;2023-06-10T01:10:41;101301.41;;;15.67;69.58
80333;BME280;69652;51.864;-2.246;2023-06-10T01:13:11;101302.66;;;15.61;70.07
80333;BME280;69652;51.864;-2.246;2023-06-10T01:15:39;101309.59;;;15.58;69.29
80333;BME280;69652;51.864;-2.246;2023-06-10T01:18:08;101308.63;;;15.63;69.03
80333;BME280;69652;51.864;-2.246;2023-06-10T01:20:36;101304.13;;;15.58;70.28
80333;BME280;69652;51.864;-2.246;2023-06-10T01:23:06;101304.59;;;15.60;68.94
80333;BME280;69652;51.864;-2.246;2023-06-10T01:25:33;101299.31;;;15.55;70.37
80333;BME280;69652;51.864;-2.246;2023-06-10T01:28:36;101294.94;;;15.54;70.35
80333;BME280;69652;51.864;-2.246;2023-06-10T01:33:59;101296.19;;;15.48;70.24
80333;BME280;69652;51.864;-2.246;2023-06-10T01:36:26;101286.72;;;15.45;70.86
80333;BME280;69652;51.864;-2.246;2023-06-10T01:38:53;101288.38;;;15.55;70.60
80333;BME280;69652;51.864;-2.246;2023-06-10T01:41:19;101282.03;;;15.37;71.20
80333;BME280;69652;51.864;-2.246;2023-06-10T01:43:47;101279.78;;;15.48;71.36
80333;BME280;69652;51.864;-2.246;2023-06-10T01:46:14;101275.50;;;15.56;71.23
80333;BME280;69652;51.864;-2.246;2023-06-10T01:48:41;101286.44;;;15.56;71.06
80333;BME280;69652;51.864;-2.246;2023-06-10T01:51:07;101286.91;;;15.58;70.02
80333;BME280;69652;51.864;-2.246;2023-06-10T01:53:33;101284.81;;;15.63;70.17
80333;BME280;69652;51.864;-2.246;2023-06-10T01:55:58;101288.34;;;15.64;69.81
80333;BME280;69652;51.864;-2.246;2023-06-10T01:58:24;101283.84;;;15.68;70.53
80333;BME280;69652;51.864;-2.246;2023-06-10T02:00:50;101282.88;;;15.64;70.69
80333;BME280;69652;51.864;-2.246;2023-06-10T02:03:15;101286.25;;;15.61;70.08
80333;BME280;69652;51.864;-2.246;2023-06-10T02:05:40;101281.78;;;15.56;70.68
80333;BME280;69652;51.864;-2.246;2023-06-10T02:08:06;101289.16;;;15.56;71.08
80333;BME280;69652;51.864;-2.246;2023-06-10T02:10:31;101275.16;;;15.57;71.48
80333;BME280;69652;51.864;-2.246;2023-06-10T02:12:57;101275.50;;;15.56;71.52
80333;BME280;69652;51.864;-2.246;2023-06-10T02:15:22;101266.47;;;15.64;71.02
80333;BME280;69652;51.864;-2.246;2023-06-10T02:17:48;101271.13;;;15.63;71.09
80333;BME280;69652;51.864;-2.246;2023-06-10T02:20:16;101277.25;;;15.60;70.11
80333;BME280;69652;51.864;-2.246;2023-06-10T02:22:42;101276.91;;;15.62;71.31
80333;BME280;69652;51.864;-2.246;2023-06-10T02:25:08;101277.25;;;15.60;70.40
80333;BME280;69652;51.864;-2.246;2023-06-10T02:27:34;101275.63;;;15.59;70.74
80333;BME280;69652;51.864;-2.246;2023-06-10T02:29:59;101266.97;;;15.57;70.56
80333;BME280;69652;51.864;-2.246;2023-06-10T02:32:25;101265.63;;;15.46;72.11
80333;BME280;69652;51.864;-2.246;2023-06-10T02:34:51;101274.81;;;15.50;71.75
80333;BME280;69652;51.864;-2.246;2023-06-10T02:37:16;101277.53;;;15.50;72.22
80333;BME280;69652;51.864;-2.246;2023-06-10T02:39:42;101281.59;;;15.61;71.06
80333;BME280;69652;51.864;-2.246;2023-06-10T02:42:07;101270.63;;;15.52;71.33
80333;BME280;69652;51.864;-2.246;2023-06-10T02:44:33;101279.50;;;15.58;70.72
80333;BME280;69652;51.864;-2.246;2023-06-10T02:46:58;101277.91;;;15.57;71.17
80333;BME280;69652;51.864;-2.246;2023-06-10T02:49:24;101267.56;;;15.54;71.23
80333;BME280;69652;51.864;-2.246;2023-06-10T02:51:52;101275.28;;;15.52;71.87
80333;BME280;69652;51.864;-2.246;2023-06-10T02:54:19;101274.16;;;15.53;71.25
80333;BME280;69652;51.864;-2.246;2023-06-10T02:56:45;101273.03;;;15.54;70.84
80333;BME280;69652;51.864;-2.246;2023-06-10T02:59:11;101277.09;;;15.57;71.43
80333;BME280;69652;51.864;-2.246;2023-06-10T03:01:36;101274.69;;;15.55;70.61
80333;BME280;69652;51.864;-2.246;2023-06-10T03:04:04;101272.56;;;15.61;70.62
80333;BME280;69652;51.864;-2.246;2023-06-10T03:06:30;101278.53;;;15.63;70.32
80333;BME280;69652;51.864;-2.246;2023-06-10T03:08:55;101277.53;;;15.50;71.88
80333;BME280;69652;51.864;-2.246;2023-06-10T03:11:21;101276.13;;;15.61;70.47
80333;BME280;69652;51.864;-2.246;2023-06-10T03:13:46;101286.72;;;15.54;70.24
80333;BME280;69652;51.864;-2.246;2023-06-10T03:16:12;101272.56;;;15.52;71.50
80333;BME280;69652;51.864;-2.246;2023-06-10T03:18:37;101272.72;;;15.47;71.20
80333;BME280;69652;51.864;-2.246;2023-06-10T03:21:03;101265.78;;;15.49;71.42
80333;BME280;69652;51.864;-2.246;2023-06-10T03:23:28;101282.84;;;15.46;71.71
80333;BME280;69652;51.864;-2.246;2023-06-10T03:25:54;101284.13;;;15.49;71.85
80333;BME280;69652;51.864;-2.246;2023-06-10T03:28:20;101284.63;;;15.51;70.96
80333;BME280;69652;51.864;-2.246;2023-06-10T03:30:47;101290.28;;;15.55;71.06
80333;BME280;69652;51.864;-2.246;2023-06-10T03:33:12;101289.97;;;15.56;70.57
80333;BME280;69652;51.864;-2.246;2023-06-10T03:35:39;101286.13;;;15.57;69.96
80333;BME280;69652;51.864;-2.246;2023-06-10T03:38:05;101283.19;;;15.45;71.53
80333;BME280;69652;51.864;-2.246;2023-06-10T03:40:30;101286.88;;;15.40;71.65
80333;BME280;69652;51.864;-2.246;2023-06-10T03:42:57;101284.94;;;15.41;71.58
80333;BME280;69652;51.864;-2.246;2023-06-10T03:45:22;101279.78;;;15.48;70.14
80333;BME280;69652;51.864;-2.246;2023-06-10T03:47:49;101278.19;;;15.47;70.59
80333;BME280;69652;51.864;-2.246;2023-06-10T03:50:15;101286.06;;;15.48;71.24
80333;BME280;69652;51.864;-2.246;2023-06-10T03:52:41;101286.06;;;15.48;71.12
80333;BME280;69652;51.864;-2.246;2023-06-10T03:55:07;101284.78;;;15.46;69.91
80333;BME280;69652;51.864;-2.246;2023-06-10T03:57:32;101282.22;;;15.49;71.08
80333;BME280;69652;51.864;-2.246;2023-06-10T03:59:58;101282.22;;;15.49;70.67
80333;BME280;69652;51.864;-2.246;2023-06-10T04:02:24;101281.41;;;15.49;71.19
80333;BME280;69652;51.864;-2.246;2023-06-10T04:04:50;101283.00;;;15.50;70.86
80333;BME280;69652;51.864;-2.246;2023-06-10T04:07:16;101276.72;;;15.49;70.99
80333;BME280;69652;51.864;-2.246;2023-06-10T04:09:44;101282.69;;;15.43;71.48
80333;BME280;69652;51.864;-2.246;2023-06-10T04:12:09;101271.41;;;15.36;71.89
80333;BME280;69652;51.864;-2.246;2023-06-10T04:14:35;101270.47;;;15.40;70.78
80333;BME280;69652;51.864;-2.246;2023-06-10T04:17:04;101272.56;;;15.43;71.59
80333;BME280;69652;51.864;-2.246;2023-06-10T04:19:32;101270.16;;;15.42;70.56
80333;BME280;69652;51.864;-2.246;2023-06-10T04:21:57;101274.63;;;15.46;70.37
80333;BME280;69652;51.864;-2.246;2023-06-10T04:24:23;101280.09;;;15.46;71.25
80333;BME280;69652;51.864;-2.246;2023-06-10T04:26:48;101279.97;;;15.51;70.00
80333;BME280;69652;51.864;-2.246;2023-06-10T04:29:14;101283.34;;;15.40;71.05
80333;BME280;69652;51.864;-2.246;2023-06-10T04:31:39;101288.31;;;15.46;70.69
80333;BME280;69652;51.864;-2.246;2023-06-10T04:34:04;101279.31;;;15.46;70.57
80333;BME280;69652;51.864;-2.246;2023-06-10T04:36:30;101276.41;;;15.51;70.68
80333;BME280;69652;51.864;-2.246;2023-06-10T04:38:55;101280.47;;;15.45;70.79
80333;BME280;69652;51.864;-2.246;2023-06-10T04:41:21;101277.88;;;15.40;70.88
80333;BME280;69652;51.864;-2.246;2023-06-10T04:43:47;101275.44;;;15.47;70.20
80333;BME280;69652;51.864;-2.246;2023-06-10T04:46:13;101274.00;;;15.49;69.82
80333;BME280;69652;51.864;-2.246;2023-06-10T04:48:38;101274.81;;;15.50;70.74
80333;BME280;69652;51.864;-2.246;2023-06-10T04:51:04;101273.50;;;15.47;69.95
80333;BME280;69652;51.864;-2.246;2023-06-10T04:53:30;101282.03;;;15.46;70.36
80333;BME280;69652;51.864;-2.246;2023-06-10T04:55:56;101284.78;;;15.37;69.99
80333;BME280;69652;51.864;-2.246;2023-06-10T04:58:23;101281.25;;;15.37;70.49
80333;BME280;69652;51.864;-2.246;2023-06-10T05:00:48;101274.00;;;15.32;70.37
80333;BME280;69652;51.864;-2.246;2023-06-10T05:03:14;101274.34;;;15.22;71.35
80333;BME280;69652;51.864;-2.246;2023-06-10T05:05:39;101268.22;;;15.34;70.95
80333;BME280;69652;51.864;-2.246;2023-06-10T05:08:05;101277.06;;;15.39;70.32
80333;BME280;69652;51.864;-2.246;2023-06-10T05:10:30;101277.22;;;15.43;69.32
80333;BME280;69652;51.864;-2.246;2023-06-10T05:12:57;101276.28;;;15.56;69.50
80333;BME280;69652;51.864;-2.246;2023-06-10T05:15:23;101274.50;;;15.43;69.74
80333;BME280;69652;51.864;-2.246;2023-06-10T05:17:49;101283.47;;;15.35;69.59
80333;BME280;69652;51.864;-2.246;2023-06-10T05:20:15;101280.75;;;15.52;69.39
80333;BME280;69652;51.864;-2.246;2023-06-10T05:22:41;101286.06;;;15.48;68.84
80333;BME280;69652;51.864;-2.246;2023-06-10T05:25:07;101282.84;;;15.46;69.63
80333;BME280;69652;51.864;-2.246;2023-06-10T05:27:32;101280.97;;;15.56;68.44
80333;BME280;69652;51.864;-2.246;2023-06-10T05:29:58;101275.16;;;15.57;69.10
80333;BME280;69652;51.864;-2.246;2023-06-10T05:32:23;101267.41;;;15.59;68.66
80333;BME280;69652;51.864;-2.246;2023-06-10T05:34:49;101278.84;;;15.61;68.63
80333;BME280;69652;51.864;-2.246;2023-06-10T05:37:14;101275.13;;;15.74;67.69
80333;BME280;69652;51.864;-2.246;2023-06-10T05:39:40;101277.88;;;15.74;68.77
80333;BME280;69652;51.864;-2.246;2023-06-10T05:42:06;101281.72;;;15.82;67.27
80333;BME280;69652;51.864;-2.246;2023-06-10T05:44:32;101283.34;;;15.74;66.95
80333;BME280;69652;51.864;-2.246;2023-06-10T05:46:58;101280.28;;;15.76;66.93
80333;BME280;69652;51.864;-2.246;2023-06-10T05:49:23;101285.09;;;15.70;66.97
80333;BME280;69652;51.864;-2.246;2023-06-10T05:51:49;101273.22;;;15.66;68.49
80333;BME280;69652;51.864;-2.246;2023-06-10T05:54:15;101281.56;;;15.78;67.49
80333;BME280;69652;51.864;-2.246;2023-06-10T05:56:40;101266.56;;;15.93;67.48
80333;BME280;69652;51.864;-2.246;2023-06-10T05:59:06;101283.16;;;15.88;67.55
80333;BME280;69652;51.864;-2.246;2023-06-10T06:01:31;101277.06;;;15.74;66.91
80333;BME280;69652;51.864;-2.246;2023-06-10T06:03:57;101293.47;;;15.82;66.65
80333;BME280;69652;51.864;-2.246;2023-06-10T06:06:22;101305.72;;;15.76;67.10
80333;BME280;69652;51.864;-2.246;2023-06-10T06:08:48;101290.25;;;15.72;66.46
80333;BME280;69652;51.864;-2.246;2023-06-10T06:11:13;101298.66;;;15.67;67.94
80333;BME280;69652;51.864;-2.246;2023-06-10T06:13:39;101299.44;;;15.84;66.32
80333;BME280;69652;51.864;-2.246;2023-06-10T06:16:05;101294.28;;;15.92;66.51
80333;BME280;69652;51.864;-2.246;2023-06-10T06:18:30;101285.72;;;15.93;66.55
80333;BME280;69652;51.864;-2.246;2023-06-10T06:20:55;101285.91;;;15.88;66.08
80333;BME280;69652;51.864;-2.246;2023-06-10T06:23:21;101287.50;;;15.98;66.28
80333;BME280;69652;51.864;-2.246;2023-06-10T06:25:46;101283.78;;;15.94;66.48
80333;BME280;69652;51.864;-2.246;2023-06-10T06:28:12;101288.75;;;16.09;65.64
80333;BME280;69652;51.864;-2.246;2023-06-10T06:30:37;101288.72;;;16.17;66.21
80333;BME280;69652;51.864;-2.246;2023-06-10T06:33:03;101284.88;;;16.10;66.27
80333;BME280;69652;51.864;-2.246;2023-06-10T06:35:31;101284.22;;;16.13;66.25
80333;BME280;69652;51.864;-2.246;2023-06-10T06:37:57;101286.66;;;16.14;66.20
80333;BME280;69652;51.864;-2.246;2023-06-10T06:40:24;101274.84;;;16.22;65.22
80333;BME280;69652;51.864;-2.246;2023-06-10T06:42:49;101276.31;;;16.20;65.56
80333;BME280;69652;51.864;-2.246;2023-06-10T06:45:15;101283.41;;;16.21;65.15
80333;BME280;69652;51.864;-2.246;2023-06-10T06:47:40;101283.78;;;16.40;65.38
80333;BME280;69652;51.864;-2.246;2023-06-10T06:50:06;101284.44;;;16.46;65.22
80333;BME280;69652;51.864;-2.246;2023-06-10T06:52:31;101286.53;;;16.49;64.41
80333;BME280;69652;51.864;-2.246;2023-06-10T06:54:57;101288.25;;;16.53;64.39
80333;BME280;69652;51.864;-2.246;2023-06-10T06:57:22;101293.78;;;16.45;64.97
80333;BME280;69652;51.864;-2.246;2023-06-10T06:59:48;101291.47;;;16.55;65.34
80333;BME280;69652;51.864;-2.246;2023-06-10T07:02:14;101285.66;;;16.66;63.95
80333;BME280;69652;51.864;-2.246;2023-06-10T07:04:39;101285.28;;;16.76;64.74
80333;BME280;69652;51.864;-2.246;2023-06-10T07:07:07;101294.38;;;16.59;65.37
80333;BME280;69652;51.864;-2.246;2023-06-10T07:09:34;101287.84;;;16.81;64.17
80333;BME280;69652;51.864;-2.246;2023-06-10T07:11:59;101286.22;;;16.80;63.87
80333;BME280;69652;51.864;-2.246;2023-06-10T07:14:26;101291.88;;;17.04;64.25
80333;BME280;69652;51.864;-2.246;2023-06-10T07:16:51;101292.94;;;17.12;63.49
80333;BME280;69652;51.864;-2.246;2023-06-10T07:19:17;101297.84;;;17.06;62.98
80333;BME280;69652;51.864;-2.246;2023-06-10T07:21:42;101298.34;;;17.29;63.38
80333;BME280;69652;51.864;-2.246;2023-06-10T07:24:08;101295.25;;;17.10;63.91
80333;BME280;69652;51.864;-2.246;2023-06-10T07:26:33;101295.50;;;17.38;62.70
80333;BME280;69652;51.864;-2.246;2023-06-10T07:28:58;101292.91;;;17.41;62.73
80333;BME280;69652;51.864;-2.246;2023-06-10T07:31:24;101297.78;;;17.56;62.36
80333;BME280;69652;51.864;-2.246;2023-06-10T07:33:50;101306.69;;;17.74;61.93
80333;BME280;69652;51.864;-2.246;2023-06-10T07:36:15;101304.66;;;17.83;61.21
80333;BME280;69652;51.864;-2.246;2023-06-10T07:38:41;101305.03;;;17.82;61.77
80333;BME280;69652;51.864;-2.246;2023-06-10T07:41:08;101312.78;;;17.80;62.34
80333;BME280;69652;51.864;-2.246;2023-06-10T07:43:34;101312.09;;;18.16;60.65
80333;BME280;69652;51.864;-2.246;2023-06-10T07:46:00;101307.66;;;18.35;60.08
80333;BME280;69652;51.864;-2.246;2023-06-10T07:48:25;101308.50;;;18.48;60.50
80333;BME280;69652;51.864;-2.246;2023-06-10T07:50:51;101304.91;;;18.35;59.86
80333;BME280;69652;51.864;-2.246;2023-06-10T07:53:17;101300.13;;;18.45;59.75
80333;BME280;69652;51.864;-2.246;2023-06-10T07:55:43;101297.88;;;18.59;59.95
80333;BME280;69652;51.864;-2.246;2023-06-10T07:58:09;101294.09;;;18.63;59.52
80333;BME280;69652;51.864;-2.246;2023-06-10T08:00:35;101307.28;;;18.70;59.69
80333;BME280;69652;51.864;-2.246;2023-06-10T08:03:00;101303.16;;;18.76;59.56
80333;BME280;69652;51.864;-2.246;2023-06-10T08:05:26;101298.53;;;19.04;58.87
80333;BME280;69652;51.864;-2.246;2023-06-10T08:07:51;101308.72;;;19.16;58.54
80333;BME280;69652;51.864;-2.246;2023-06-10T08:10:17;101308.19;;;19.51;57.84
80333;BME280;69652;51.864;-2.246;2023-06-10T08:12:42;101295.81;;;19.44;57.49
80333;BME280;69652;51.864;-2.246;2023-06-10T08:15:08;101301.94;;;19.66;57.38
80333;BME280;69652;51.864;-2.246;2023-06-10T08:17:34;101303.41;;;19.75;57.28
80333;BME280;69652;51.864;-2.246;2023-06-10T08:20:00;101306.00;;;19.84;57.16
80333;BME280;69652;51.864;-2.246;2023-06-10T08:22:26;101306.59;;;19.77;57.02
80333;BME280;69652;51.864;-2.246;2023-06-10T08:24:52;101308.25;;;19.66;57.80
80333;BME280;69652;51.864;-2.246;2023-06-10T08:27:17;101296.91;;;19.68;57.72
80333;BME280;69652;51.864;-2.246;2023-06-10T08:29:42;101298.56;;;19.44;58.16
80333;BME280;69652;51.864;-2.246;2023-06-10T08:32:08;101289.41;;;19.28;58.50
80333;BME280;69652;51.864;-2.246;2023-06-10T08:34:34;101288.34;;;19.45;58.43
80333;BME280;69652;51.864;-2.246;2023-06-10T08:37:03;101287.88;;;19.55;57.96
80333;BME280;69652;51.864;-2.246;2023-06-10T08:39:29;101285.22;;;19.87;57.62
80333;BME280;69652;51.864;-2.246;2023-06-10T08:44:42;101287.13;;;19.70;57.99
80333;BME280;69652;51.864;-2.246;2023-06-10T08:47:15;101290.06;;;19.77;57.85
80333;BME280;69652;51.864;-2.246;2023-06-10T08:49:44;101285.31;;;19.90;57.06
80333;BME280;69652;51.864;-2.246;2023-06-10T08:52:14;101282.94;;;20.04;56.68
80333;BME280;69652;51.864;-2.246;2023-06-10T08:54:43;101283.72;;;19.89;58.15
80333;BME280;69652;51.864;-2.246;2023-06-10T08:57:12;101269.34;;;20.11;57.53
80333;BME280;69652;51.864;-2.246;2023-06-10T08:59:39;101277.84;;;20.06;57.31
80333;BME280;69652;51.864;-2.246;2023-06-10T09:02:05;101260.88;;;20.20;57.03
80333;BME280;69652;51.864;-2.246;2023-06-10T09:04:32;101258.41;;;20.31;57.22
80333;BME280;69652;51.864;-2.246;2023-06-10T09:06:59;101251.50;;;20.52;56.58
80333;BME280;69652;51.864;-2.246;2023-06-10T09:09:26;101259.38;;;20.54;56.71
80333;BME280;69652;51.864;-2.246;2023-06-10T09:11:53;101249.84;;;20.67;56.07
80333;BME280;69652;51.864;-2.246;2023-06-10T09:14:18;101245.78;;;20.96;55.79
80333;BME280;69652;51.864;-2.246;2023-06-10T09:16:44;101253.84;;;20.85;55.47
80333;BME280;69652;51.864;-2.246;2023-06-10T09:19:11;101267.97;;;21.00;55.17
80333;BME280;69652;51.864;-2.246;2023-06-10T09:21:37;101256.91;;;21.00;55.39
80333;BME280;69652;51.864;-2.246;2023-06-10T09:24:04;101262.63;;;21.26;55.59
80333;BME280;69652;51.864;-2.246;2023-06-10T09:26:30;101270.25;;;21.52;54.24
80333;BME280;69652;51.864;-2.246;2023-06-10T09:29:06;101262.13;;;21.59;53.83
80333;BME280;69652;51.864;-2.246;2023-06-10T09:31:39;101262.19;;;21.62;54.60
80333;BME280;69652;51.864;-2.246;2023-06-10T09:34:15;101244.13;;;21.88;53.76
80333;BME280;69652;51.864;-2.246;2023-06-10T09:36:42;101245.69;;;22.08;53.53
80333;BME280;69652;51.864;-2.246;2023-06-10T09:39:16;101252.53;;;22.14;53.11
80333;BME280;69652;51.864;-2.246;2023-06-10T09:41:42;101245.56;;;22.24;53.02
80333;BME280;69652;51.864;-2.246;2023-06-10T09:44:19;101249.38;;;22.39;53.26
80333;BME280;69652;51.864;-2.246;2023-06-10T09:46:46;101244.22;;;22.63;52.10
80333;BME280;69652;51.864;-2.246;2023-06-10T09:49:13;101244.16;;;22.33;52.69
80333;BME280;69652;51.864;-2.246;2023-06-10T09:51:52;101250.03;;;22.81;51.79
80333;BME280;69652;51.864;-2.246;2023-06-10T09:54:18;101243.50;;;22.93;52.10
80333;BME280;69652;51.864;-2.246;2023-06-10T09:56:46;101244.41;;;23.00;52.29
80333;BME280;69652;51.864;-2.246;2023-06-10T09:59:12;101235.28;;;23.30;51.08
80333;BME280;69652;51.864;-2.246;2023-06-10T10:01:37;101231.13;;;23.47;51.25
80333;BME280;69652;51.864;-2.246;2023-06-10T10:04:03;101234.38;;;23.52;51.20
80333;BME280;69652;51.864;-2.246;2023-06-10T10:06:30;101225.47;;;23.73;50.20
80333;BME280;69652;51.864;-2.246;2023-06-10T10:08:55;101228.25;;;23.73;50.51
80333;BME280;69652;51.864;-2.246;2023-06-10T10:11:21;101228.78;;;23.86;50.30
80333;BME280;69652;51.864;-2.246;2023-06-10T10:13:49;101215.91;;;24.04;50.21
80333;BME280;69652;51.864;-2.246;2023-06-10T10:16:20;101219.13;;;24.13;49.58
80333;BME280;69652;51.864;-2.246;2023-06-10T10:18:52;101217.50;;;24.08;50.13
80333;BME280;69652;51.864;-2.246;2023-06-10T10:21:23;101204.47;;;25.36;47.40
80333;BME280;69652;51.864;-2.246;2023-06-10T10:24:07;101193.44;;;26.64;44.22
80333;BME280;69652;51.864;-2.246;2023-06-10T10:26:35;101188.97;;;26.95;42.92
80333;BME280;69652;51.864;-2.246;2023-06-10T10:31:37;101188.47;;;27.87;42.41
80333;BME280;69652;51.864;-2.246;2023-06-10T10:34:09;101184.59;;;26.94;44.50
80333;BME280;69652;51.864;-2.246;2023-06-10T10:36:38;101189.38;;;27.01;43.67
80333;BME280;69652;51.864;-2.246;2023-06-10T10:39:04;101188.69;;;28.11;42.33
80333;BME280;69652;51.864;-2.246;2023-06-10T10:41:31;101174.69;;;28.59;40.89
80333;BME280;69652;51.864;-2.246;2023-06-10T10:43:58;101177.00;;;28.26;40.83
80333;BME280;69652;51.864;-2.246;2023-06-10T10:46:24;101176.78;;;28.07;41.92
80333;BME280;69652;51.864;-2.246;2023-06-10T10:48:53;101184.88;;;27.24;43.11
80333;BME280;69652;51.864;-2.246;2023-06-10T10:51:24;101170.56;;;27.15;43.77
80333;BME280;69652;51.864;-2.246;2023-06-10T10:54:12;101167.75;;;27.22;43.83
80333;BME280;69652;51.864;-2.246;2023-06-10T10:56:38;101177.34;;;27.14;44.49
80333;BME280;69652;51.864;-2.246;2023-06-10T10:59:05;101178.06;;;27.29;44.18
80333;BME280;69652;51.864;-2.246;2023-06-10T11:01:41;101170.63;;;27.78;43.80
80333;BME280;69652;51.864;-2.246;2023-06-10T11:04:08;101170.31;;;27.65;44.00
80333;BME280;69652;51.864;-2.246;2023-06-10T11:06:34;101164.88;;;27.40;43.86
80333;BME280;69652;51.864;-2.246;2023-06-10T11:09:00;101170.34;;;27.54;44.64
80333;BME280;69652;51.864;-2.246;2023-06-10T11:11:27;101172.72;;;27.63;43.33
80333;BME280;69652;51.864;-2.246;2023-06-10T11:16:29;101158.84;;;28.49;42.45
80333;BME280;69652;51.864;-2.246;2023-06-10T11:18:56;101155.53;;;28.57;42.74
80333;BME280;69652;51.864;-2.246;2023-06-10T11:21:25;101152.84;;;28.88;42.18
80333;BME280;69652;51.864;-2.246;2023-06-10T11:23:51;101154.50;;;28.82;42.67
80333;BME280;69652;51.864;-2.246;2023-06-10T11:34:05;101138.94;;;29.68;40.72
80333;BME280;69652;51.864;-2.246;2023-06-10T11:36:33;101140.94;;;29.68;40.34
80333;BME280;69652;51.864;-2.246;2023-06-10T11:39:02;101136.78;;;30.03;39.14
80333;BME280;69652;51.864;-2.246;2023-06-10T11:41:29;101130.66;;;30.31;38.61
80333;BME280;69652;51.864;-2.246;2023-06-10T11:43:57;101130.25;;;30.09;39.50
80333;BME280;69652;51.864;-2.246;2023-06-10T11:46:26;101131.06;;;30.73;39.31
80333;BME280;69652;51.864;-2.246;2023-06-10T11:48:57;101134.72;;;30.70;39.44
80333;BME280;69652;51.864;-2.246;2023-06-10T11:51:27;101125.69;;;31.18;38.14
80333;BME280;69652;51.864;-2.246;2023-06-10T11:53:54;101125.78;;;30.95;37.72
80333;BME280;69652;51.864;-2.246;2023-06-10T11:56:23;101130.19;;;31.15;38.53
80333;BME280;69652;51.864;-2.246;2023-06-10T11:58:59;101114.47;;;31.18;37.14
80333;BME280;69652;51.864;-2.246;2023-06-10T12:01:29;101114.97;;;31.49;36.89
80333;BME280;69652;51.864;-2.246;2023-06-10T12:04:00;101117.25;;;31.86;37.08
80333;BME280;69652;51.864;-2.246;2023-06-10T12:06:26;101118.75;;;31.91;36.90
80333;BME280;69652;51.864;-2.246;2023-06-10T12:08:53;101116.09;;;32.00;36.31
80333;BME280;69652;51.864;-2.246;2023-06-10T12:11:18;101113.28;;;32.16;36.88
80333;BME280;69652;51.864;-2.246;2023-06-10T12:13:48;101112.97;;;32.43;36.92
80333;BME280;69652;51.864;-2.246;2023-06-10T12:16:15;101111.03;;;32.40;36.41
80333;BME280;69652;51.864;-2.246;2023-06-10T12:18:43;101106.28;;;32.66;35.41
80333;BME280;69652;51.864;-2.246;2023-06-10T12:21:25;101100.31;;;32.64;35.23
80333;BME280;69652;51.864;-2.246;2023-06-10T12:24:04;101099.50;;;32.80;34.47
80333;BME280;69652;51.864;-2.246;2023-06-10T12:26:41;101089.06;;;33.44;34.21
80333;BME280;69652;51.864;-2.246;2023-06-10T12:29:16;101088.28;;;33.43;33.36
80333;BME280;69652;51.864;-2.246;2023-06-10T12:34:36;101069.88;;;33.64;34.28
80333;BME280;69652;51.864;-2.246;2023-06-10T12:37:03;101065.16;;;34.08;32.03
80333;BME280;69652;51.864;-2.246;2023-06-10T12:39:32;101081.47;;;33.66;33.33
80333;BME280;69652;51.864;-2.246;2023-06-10T12:41:59;101069.25;;;34.51;31.86
80333;BME280;69652;51.864;-2.246;2023-06-10T12:44:31;101072.78;;;34.20;33.35
80333;BME280;69652;51.864;-2.246;2023-06-10T12:46:57;101055.34;;;34.78;30.42
80333;BME280;69652;51.864;-2.246;2023-06-10T12:49:23;101058.25;;;34.74;31.12
80333;BME280;69652;51.864;-2.246;2023-06-10T12:51:48;101053.56;;;34.50;30.93
80333;BME280;69652;51.864;-2.246;2023-06-10T12:54:14;101048.06;;;34.68;31.35
80333;BME280;69652;51.864;-2.246;2023-06-10T12:56:39;101048.31;;;35.23;29.11
80333;BME280;69652;51.864;-2.246;2023-06-10T12:59:05;101046.50;;;35.47;28.85
80333;BME280;69652;51.864;-2.246;2023-06-10T13:01:31;101045.78;;;35.74;28.74
80333;BME280;69652;51.864;-2.246;2023-06-10T13:03:57;101047.81;;;35.92;28.90